Kenaston, North Dakota
Current Conditions -  °F | °C
As of 11:55 AM on Thursday 23 Oct 2014 (Local Time) from K08D Reporting Station
Clear Clear  
Wind Chill: 55°   Ceiling: Unl
Heat Index: 55°   Visibility: 10mi
Dew Point: 34°   Wind: 7mph
Humidity: 44%   Direction: 230°SW
Pressure: 29.82"   Gusts: NA
Location:  48.6651°N, 102.033°W
Report Text: K08D 231655Z AUTO 23006KT 10SM CLR 13/01 A2982 RMK AO2
Loading
Personal Weather Stations






























Interactive Weather Map
Tropical Storm Tracking
New forecast layout! Learn more

10-Day Weather Forecast

Advertisements
Track Severe Weather on mobile